createdAt,value
2023-03-26T00:00:56.755Z,6.13
2023-03-26T00:03:26.045Z,6.10
2023-03-26T00:06:04.063Z,6.20
2023-03-26T00:08:32.466Z,6.33
2023-03-26T00:11:02.321Z,6.23
2023-03-26T00:13:30.773Z,6.13
2023-03-26T00:15:59.168Z,6.50
2023-03-26T00:18:30.765Z,6.27
2023-03-26T00:20:59.359Z,5.83
2023-03-26T00:23:28.335Z,5.70
2023-03-26T00:25:57.182Z,5.93
2023-03-26T00:28:27.417Z,6.03
2023-03-26T00:31:00.175Z,5.80
2023-03-26T00:33:28.743Z,5.70
2023-03-26T00:35:59.117Z,6.17
2023-03-26T00:38:28.527Z,5.97
2023-03-26T00:40:59.286Z,5.77
2023-03-26T00:43:32.858Z,6.23
2023-03-26T00:46:02.274Z,5.80
2023-03-26T00:48:44.057Z,6.50
2023-03-26T00:51:15.559Z,6.00
2023-03-26T00:53:44.484Z,5.73
2023-03-26T00:56:13.210Z,6.20
2023-03-26T00:58:43.054Z,5.73
2023-03-26T01:01:13.773Z,6.10
2023-03-26T01:03:53.191Z,6.23
2023-03-26T01:06:32.863Z,6.37
2023-03-26T01:09:04.366Z,5.47
2023-03-26T01:11:33.727Z,6.03
2023-03-26T01:14:07.570Z,5.57
2023-03-26T01:16:38.230Z,6.13
2023-03-26T01:19:10.302Z,6.40
2023-03-26T01:21:39.765Z,6.20
2023-03-26T01:24:10.454Z,5.97
2023-03-26T01:27:02.675Z,5.67
2023-03-26T01:29:33.467Z,5.57
2023-03-26T01:32:09.560Z,6.37
2023-03-26T01:34:47.002Z,6.50
2023-03-26T01:37:20.947Z,6.33
2023-03-26T01:39:53.351Z,6.53
2023-03-26T01:42:24.449Z,6.50
2023-03-26T01:44:56.760Z,6.47
2023-03-26T01:47:25.318Z,5.90
2023-03-26T01:49:53.687Z,6.40
2023-03-26T01:52:25.227Z,6.47
2023-03-26T01:54:56.132Z,6.30
2023-03-26T01:57:29.874Z,6.13
2023-03-26T02:00:12.816Z,6.37
2023-03-26T02:02:47.469Z,6.07
2023-03-26T02:05:19.137Z,6.03
2023-03-26T02:07:51.155Z,6.47
2023-03-26T02:10:23.371Z,5.73
2023-03-26T02:12:52.214Z,6.13
2023-03-26T02:15:20.745Z,6.00
2023-03-26T02:17:49.629Z,6.03
2023-03-26T02:20:19.832Z,5.90
2023-03-26T02:22:48.802Z,5.77
2023-03-26T02:25:18.862Z,5.80
2023-03-26T02:27:50.772Z,5.80
2023-03-26T02:30:20.651Z,6.07
2023-03-26T02:32:52.443Z,6.17
2023-03-26T02:35:21.087Z,6.07
2023-03-26T02:37:50.987Z,5.53
2023-03-26T02:40:21.277Z,5.73
2023-03-26T02:42:51.196Z,5.83
2023-03-26T02:45:19.608Z,5.60
2023-03-26T02:47:48.054Z,5.07
2023-03-26T02:50:16.638Z,5.47
2023-03-26T02:52:45.415Z,5.43
2023-03-26T02:55:13.825Z,5.40
2023-03-26T02:57:42.448Z,5.70
2023-03-26T03:00:17.377Z,5.40
2023-03-26T03:02:47.942Z,6.30
2023-03-26T03:05:18.136Z,5.00
2023-03-26T03:07:46.719Z,5.30
2023-03-26T03:10:15.667Z,5.40
2023-03-26T03:12:44.214Z,5.43
2023-03-26T03:15:14.649Z,4.87
2023-03-26T03:17:43.102Z,5.60
2023-03-26T03:20:12.365Z,4.77
2023-03-26T03:22:40.970Z,5.13
2023-03-26T03:25:14.412Z,4.90
2023-03-26T03:27:43.004Z,5.30
2023-03-26T03:30:12.713Z,5.20
2023-03-26T03:32:42.755Z,5.37
2023-03-26T03:35:11.420Z,5.10
2023-03-26T03:37:39.805Z,5.40
2023-03-26T03:40:11.095Z,5.40
2023-03-26T03:42:39.700Z,5.30
2023-03-26T03:45:08.658Z,5.27
2023-03-26T03:47:37.093Z,5.40
2023-03-26T03:50:07.395Z,5.27
2023-03-26T03:52:35.814Z,4.90
2023-03-26T03:55:04.387Z,4.53
2023-03-26T03:57:33.553Z,4.63
2023-03-26T04:00:02.528Z,4.80
2023-03-26T04:02:35.065Z,4.60
2023-03-26T04:05:04.085Z,4.30
2023-03-26T04:07:33.906Z,4.50
2023-03-26T04:10:03.532Z,4.90
2023-03-26T04:12:32.431Z,4.90
2023-03-26T04:15:00.910Z,4.63
2023-03-26T04:17:30.627Z,4.27
2023-03-26T04:20:07.173Z,4.30
2023-03-26T04:22:37.234Z,4.47
2023-03-26T04:25:05.879Z,4.27
2023-03-26T04:27:35.477Z,4.00
2023-03-26T04:30:04.296Z,4.10
2023-03-26T04:32:34.320Z,4.23
2023-03-26T04:35:04.087Z,4.30
2023-03-26T04:37:34.612Z,3.90
2023-03-26T04:40:10.473Z,4.17
2023-03-26T04:42:41.709Z,4.37
2023-03-26T04:45:11.323Z,4.80
2023-03-26T04:47:39.853Z,4.10
2023-03-26T04:50:09.366Z,4.33
2023-03-26T04:52:37.891Z,4.20
2023-03-26T04:55:09.449Z,4.20
2023-03-26T04:57:39.314Z,3.97
2023-03-26T05:00:15.087Z,5.00
2023-03-26T05:02:43.683Z,4.90
2023-03-26T05:05:12.144Z,4.57
2023-03-26T05:07:42.194Z,4.33
2023-03-26T05:10:14.180Z,4.20
2023-03-26T05:12:42.651Z,4.70
2023-03-26T05:15:12.350Z,4.87
2023-03-26T05:17:41.729Z,4.47
2023-03-26T05:20:16.888Z,4.40
2023-03-26T05:22:45.347Z,4.20
2023-03-26T05:25:15.572Z,4.67
2023-03-26T05:27:44.126Z,4.43
2023-03-26T05:30:15.136Z,4.50
2023-03-26T05:32:43.602Z,4.43
2023-03-26T05:35:12.997Z,4.73
2023-03-26T05:37:41.448Z,4.63
2023-03-26T05:40:11.707Z,4.70
2023-03-26T05:42:41.970Z,5.13
2023-03-26T05:45:12.647Z,5.13
2023-03-26T05:47:41.101Z,5.10
2023-03-26T05:50:10.567Z,5.30
2023-03-26T05:52:39.218Z,5.20
2023-03-26T05:55:08.264Z,5.03
2023-03-26T05:57:36.747Z,4.83
2023-03-26T06:00:08.932Z,4.83
2023-03-26T06:02:37.419Z,4.60
2023-03-26T06:05:06.079Z,5.07
2023-03-26T06:07:35.193Z,5.40
2023-03-26T06:10:03.708Z,4.67
2023-03-26T06:12:32.100Z,4.87
2023-03-26T06:15:00.724Z,4.87
2023-03-26T06:17:30.500Z,4.60
2023-03-26T06:19:59.283Z,4.73
2023-03-26T06:22:27.722Z,4.70
2023-03-26T06:24:56.279Z,4.90
2023-03-26T06:27:24.841Z,4.47
2023-03-26T06:29:53.254Z,4.97
2023-03-26T06:32:21.687Z,4.67
2023-03-26T06:34:51.552Z,4.80
2023-03-26T06:37:20.277Z,4.70
2023-03-26T06:39:48.872Z,4.67
2023-03-26T06:42:17.264Z,4.73
2023-03-26T06:44:45.682Z,4.00
2023-03-26T06:47:14.080Z,4.50
2023-03-26T06:49:44.922Z,4.93
2023-03-26T06:52:15.207Z,4.43
2023-03-26T06:54:43.573Z,4.40
2023-03-26T06:57:12.018Z,5.00
2023-03-26T06:59:40.518Z,5.00
2023-03-26T07:02:09.177Z,4.97
2023-03-26T07:04:37.721Z,4.50
2023-03-26T07:07:06.209Z,5.13
2023-03-26T07:09:36.130Z,4.67
2023-03-26T07:12:04.516Z,4.93
2023-03-26T07:14:32.928Z,5.43
2023-03-26T07:17:01.410Z,5.00
2023-03-26T07:19:29.863Z,4.77
2023-03-26T07:21:58.503Z,5.30
2023-03-26T07:24:27.260Z,4.97
2023-03-26T07:27:01.293Z,4.50
2023-03-26T07:29:34.244Z,4.27
2023-03-26T07:32:05.700Z,4.97
2023-03-26T07:34:39.996Z,5.47
2023-03-26T07:37:12.622Z,6.13
2023-03-26T07:39:46.024Z,5.90
2023-03-26T07:42:21.057Z,6.03
2023-03-26T07:44:52.505Z,5.60
2023-03-26T07:47:26.068Z,5.23
2023-03-26T07:49:55.726Z,5.30
2023-03-26T07:52:24.437Z,5.43
2023-03-26T07:54:53.110Z,5.30
2023-03-26T07:57:27.504Z,5.27
2023-03-26T07:59:59.387Z,4.60
2023-03-26T08:02:37.960Z,5.60
2023-03-26T08:05:19.835Z,5.73
2023-03-26T08:07:55.748Z,5.33
2023-03-26T08:10:25.758Z,5.37
2023-03-26T08:12:59.454Z,5.40
2023-03-26T08:15:30.749Z,4.80
2023-03-26T08:18:01.734Z,5.40
2023-03-26T08:20:34.373Z,5.57
2023-03-26T08:23:05.185Z,6.03
2023-03-26T08:25:37.396Z,5.90
2023-03-26T08:28:12.561Z,5.50
2023-03-26T08:30:41.213Z,5.50
2023-03-26T08:33:14.026Z,6.13
2023-03-26T08:35:42.866Z,5.63
2023-03-26T08:38:11.826Z,4.90
2023-03-26T08:40:58.711Z,5.00
2023-03-26T08:43:38.735Z,5.27
2023-03-26T08:46:13.308Z,5.13
2023-03-26T08:48:59.564Z,4.60
2023-03-26T08:51:46.480Z,5.07
2023-03-26T08:54:33.451Z,4.97
2023-03-26T08:57:10.924Z,4.70
2023-03-26T09:00:05.908Z,3.97
2023-03-26T09:02:55.500Z,4.87
2023-03-26T09:05:41.757Z,4.87
2023-03-26T09:08:26.604Z,4.50
2023-03-26T09:11:06.411Z,4.50
2023-03-26T09:13:52.616Z,5.13
2023-03-26T09:16:36.053Z,5.20
2023-03-26T09:19:16.159Z,4.87
2023-03-26T09:21:59.968Z,5.07
2023-03-26T09:24:48.162Z,5.20
2023-03-26T09:27:20.943Z,4.87
2023-03-26T09:29:58.653Z,4.73
2023-03-26T09:32:47.783Z,4.83
2023-03-26T09:35:24.211Z,5.30
2023-03-26T09:37:58.865Z,3.80
2023-03-26T09:40:31.669Z,4.57
2023-03-26T09:43:08.517Z,4.90
2023-03-26T09:45:48.368Z,4.60
2023-03-26T09:48:31.684Z,4.10
2023-03-26T09:51:15.069Z,4.40
2023-03-26T09:54:04.274Z,4.53
2023-03-26T09:56:39.579Z,4.03
2023-03-26T09:59:26.178Z,4.23
2023-03-26T10:01:59.618Z,4.50
2023-03-26T10:04:40.322Z,4.20
2023-03-26T10:07:14.444Z,3.60
2023-03-26T10:09:51.126Z,4.20
2023-03-26T10:12:26.301Z,3.63
2023-03-26T10:14:59.995Z,3.80
2023-03-26T10:17:36.397Z,4.07
2023-03-26T10:20:17.721Z,4.40
2023-03-26T10:22:54.702Z,3.53
2023-03-26T10:25:37.930Z,3.70
2023-03-26T10:28:12.094Z,3.67
2023-03-26T10:30:47.144Z,3.53
2023-03-26T10:33:27.379Z,3.73
2023-03-26T10:36:02.495Z,3.73
2023-03-26T10:38:39.680Z,3.47
2023-03-26T10:41:12.317Z,4.20
2023-03-26T10:44:07.525Z,3.90
2023-03-26T10:46:51.545Z,3.70
2023-03-26T10:49:30.783Z,4.37
2023-03-26T10:52:00.381Z,3.60
2023-03-26T10:54:36.530Z,3.50
2023-03-26T10:57:08.160Z,3.70
2023-03-26T10:59:36.597Z,3.67
2023-03-26T11:02:29.366Z,3.10
2023-03-26T11:05:05.136Z,4.03
2023-03-26T11:07:38.744Z,3.50
2023-03-26T11:10:10.821Z,3.37
2023-03-26T11:12:43.873Z,4.87
2023-03-26T11:15:22.577Z,4.20
2023-03-26T11:17:55.436Z,4.23
2023-03-26T11:20:26.273Z,5.77
2023-03-26T11:23:02.367Z,4.90
2023-03-26T11:25:45.741Z,4.10
2023-03-26T11:28:23.767Z,3.85
2023-03-26T11:30:55.851Z,5.65
2023-03-26T11:33:26.898Z,5.47
2023-03-26T11:36:03.631Z,5.37
2023-03-26T11:38:37.499Z,6.23
2023-03-26T11:41:13.202Z,7.93
2023-03-26T11:43:41.717Z,6.77
2023-03-26T11:46:13.579Z,6.30
2023-03-26T11:48:44.366Z,6.73
2023-03-26T11:51:16.462Z,8.27
2023-03-26T11:53:46.810Z,7.17
2023-03-26T11:56:21.476Z,6.40
2023-03-26T11:58:52.826Z,8.18
2023-03-26T12:01:29.931Z,8.53
2023-03-26T12:03:59.834Z,7.25
2023-03-26T12:06:29.099Z,8.07
2023-03-26T12:08:58.092Z,9.43
2023-03-26T12:11:32.191Z,8.23
2023-03-26T12:14:03.418Z,5.63
2023-03-26T12:16:32.337Z,8.60
2023-03-26T12:19:01.892Z,9.30
2023-03-26T12:21:30.534Z,7.97
2023-03-26T12:24:00.422Z,7.10
2023-03-26T12:26:36.835Z,7.82
2023-03-26T12:29:12.728Z,10.30
2023-03-26T12:31:47.904Z,8.90
2023-03-26T12:34:17.455Z,7.60
2023-03-26T12:36:50.791Z,10.27
2023-03-26T12:40:09.767Z,11.77
2023-03-26T12:44:47.002Z,13.30
2023-03-26T12:45:16.879Z,9.90
2023-03-26T12:48:00.765Z,9.27
2023-03-26T12:50:35.780Z,10.95
2023-03-26T12:53:17.967Z,13.00
2023-03-26T12:55:53.208Z,11.10
2023-03-26T12:58:39.609Z,8.23
2023-03-26T13:01:15.979Z,7.35
2023-03-26T13:03:57.240Z,8.68
2023-03-26T13:06:31.578Z,11.38
2023-03-26T13:09:37.631Z,8.32
2023-03-26T13:12:10.936Z,6.40
2023-03-26T13:14:50.734Z,5.88
2023-03-26T13:17:23.926Z,5.80
2023-03-26T13:19:56.415Z,5.35
2023-03-26T13:22:27.431Z,5.55
2023-03-26T13:24:58.728Z,5.57
2023-03-26T13:27:38.915Z,5.55
2023-03-26T13:30:14.547Z,5.75
2023-03-26T13:32:49.695Z,5.95
2023-03-26T13:35:21.630Z,5.28
2023-03-26T13:37:53.146Z,5.10
2023-03-26T13:40:25.503Z,4.70
2023-03-26T13:43:02.962Z,4.22
2023-03-26T13:45:41.592Z,4.30
2023-03-26T13:48:14.817Z,4.22
2023-03-26T13:50:43.948Z,4.65
2023-03-26T13:53:15.430Z,4.25
2023-03-26T13:55:45.549Z,4.32
2023-03-26T13:58:16.077Z,4.28
2023-03-26T14:00:54.418Z,4.63
2023-03-26T14:03:30.148Z,4.40
2023-03-26T14:06:01.969Z,4.20
2023-03-26T14:08:35.291Z,4.38
2023-03-26T14:11:07.959Z,4.00
2023-03-26T14:13:40.458Z,3.75
2023-03-26T14:16:13.576Z,4.05
2023-03-26T14:18:47.438Z,4.75
2023-03-26T14:21:32.350Z,3.95
2023-03-26T14:24:07.702Z,4.22
2023-03-26T14:26:43.436Z,3.90
2023-03-26T14:29:23.839Z,4.18
2023-03-26T14:31:59.686Z,3.95
2023-03-26T14:34:35.563Z,4.30
2023-03-26T14:37:27.978Z,4.20
2023-03-26T14:40:14.953Z,3.53
2023-03-26T14:42:44.610Z,3.90
2023-03-26T14:45:35.479Z,4.00
2023-03-26T14:48:14.093Z,3.70
2023-03-26T14:50:54.468Z,4.20
2023-03-26T14:53:28.000Z,3.90
2023-03-26T14:56:13.190Z,4.13
2023-03-26T14:59:00.377Z,3.95
2023-03-26T15:01:29.621Z,3.80
2023-03-26T15:04:18.721Z,4.18
2023-03-26T15:07:04.850Z,3.58
2023-03-26T15:09:51.880Z,3.67
2023-03-26T15:12:25.629Z,3.58
2023-03-26T15:15:13.938Z,3.70
2023-03-26T15:18:00.341Z,3.90
2023-03-26T15:20:49.613Z,3.75
2023-03-26T15:23:51.020Z,3.53
2023-03-26T15:26:47.448Z,3.70
2023-03-26T15:29:27.073Z,3.55
2023-03-26T15:32:22.359Z,3.58
2023-03-26T15:35:12.426Z,3.22
2023-03-26T15:38:01.788Z,3.50
2023-03-26T15:40:45.108Z,3.22
2023-03-26T15:43:15.832Z,3.75
2023-03-26T15:45:47.531Z,3.40
2023-03-26T15:48:37.483Z,3.28
2023-03-26T15:51:19.141Z,3.60
2023-03-26T15:53:51.880Z,3.22
2023-03-26T15:56:26.671Z,3.53
2023-03-26T15:58:59.437Z,3.30
2023-03-26T16:01:34.041Z,3.35
2023-03-26T16:04:09.153Z,3.58
2023-03-26T16:06:41.585Z,3.80
2023-03-26T16:09:22.052Z,3.50
2023-03-26T16:11:54.818Z,3.63
2023-03-26T16:14:25.913Z,3.60
2023-03-26T16:16:58.619Z,3.60
2023-03-26T16:19:51.984Z,3.33
2023-03-26T16:22:43.078Z,3.72
2023-03-26T16:25:27.237Z,3.65
2023-03-26T16:28:18.169Z,3.88
2023-03-26T16:31:22.850Z,3.78
2023-03-26T16:33:59.949Z,3.83
2023-03-26T16:36:34.507Z,2.72
2023-03-26T16:39:18.741Z,3.65
2023-03-26T16:41:56.457Z,3.30
2023-03-26T16:44:40.190Z,3.83
2023-03-26T16:47:14.476Z,3.22
2023-03-26T16:50:08.590Z,4.25
2023-03-26T16:52:43.958Z,3.60
2023-03-26T16:55:19.721Z,3.70
2023-03-26T16:57:51.953Z,3.80
2023-03-26T17:00:27.466Z,4.20
2023-03-26T17:03:03.799Z,4.22
2023-03-26T17:05:35.863Z,4.43
2023-03-26T17:08:08.387Z,4.23
2023-03-26T17:10:38.359Z,4.78
2023-03-26T17:13:09.604Z,3.97
2023-03-26T17:15:43.509Z,4.90
2023-03-26T17:18:34.659Z,5.20
2023-03-26T17:21:05.576Z,5.33
2023-03-26T17:23:42.335Z,4.63
2023-03-26T17:26:13.576Z,4.23
2023-03-26T17:28:50.498Z,4.40
2023-03-26T17:31:23.642Z,4.90
2023-03-26T17:33:53.764Z,4.77
2023-03-26T17:36:25.224Z,4.70
2023-03-26T17:39:00.861Z,5.07
2023-03-26T17:41:47.832Z,4.67
2023-03-26T17:44:30.595Z,5.27
2023-03-26T17:46:59.624Z,5.03
2023-03-26T17:49:33.403Z,5.07
2023-03-26T17:52:03.633Z,5.00
2023-03-26T17:54:34.538Z,4.80
2023-03-26T17:57:05.281Z,4.53
2023-03-26T17:59:34.109Z,4.63
2023-03-26T18:02:06.933Z,5.10
2023-03-26T18:04:38.324Z,5.23
2023-03-26T18:07:25.043Z,5.30
2023-03-26T18:09:59.274Z,5.47
2023-03-26T18:12:36.822Z,4.83
2023-03-26T18:15:20.050Z,4.77
2023-03-26T18:17:48.971Z,4.27
2023-03-26T18:20:23.543Z,3.40
2023-03-26T18:22:53.035Z,4.30
2023-03-26T18:25:24.008Z,4.57
2023-03-26T18:27:52.786Z,4.30
2023-03-26T18:30:22.672Z,4.97
2023-03-26T18:33:00.142Z,4.67
2023-03-26T18:35:42.220Z,4.93
2023-03-26T18:38:14.451Z,4.43
2023-03-26T18:40:44.226Z,4.60
2023-03-26T18:43:28.566Z,4.20
2023-03-26T18:46:02.887Z,4.43
2023-03-26T18:48:31.304Z,3.80
2023-03-26T18:51:05.891Z,4.20
2023-03-26T18:53:39.602Z,3.90
2023-03-26T18:56:20.326Z,4.47
2023-03-26T18:58:52.220Z,3.70
2023-03-26T19:01:25.871Z,3.67
2023-03-26T19:03:55.306Z,3.67
2023-03-26T19:06:26.060Z,3.83
2023-03-26T19:08:54.565Z,3.43
2023-03-26T19:11:23.037Z,3.57
2023-03-26T19:14:03.394Z,3.63
2023-03-26T19:16:36.532Z,3.30
2023-03-26T19:19:07.087Z,4.07
2023-03-26T19:21:37.959Z,3.37
2023-03-26T19:24:06.948Z,3.53
2023-03-26T19:26:36.679Z,3.43
2023-03-26T19:29:05.907Z,3.60
2023-03-26T19:31:35.253Z,3.80
2023-03-26T19:34:04.977Z,4.07
2023-03-26T19:36:34.626Z,3.77
2023-03-26T19:39:12.830Z,4.27
2023-03-26T19:41:42.705Z,4.40
2023-03-26T19:44:21.946Z,4.57
2023-03-26T19:46:52.916Z,4.53
2023-03-26T19:49:30.026Z,4.20
2023-03-26T19:52:05.224Z,4.40
2023-03-26T19:57:36.554Z,5.20
2023-03-26T20:00:13.324Z,6.00
2023-03-26T20:02:42.390Z,6.70
2023-03-26T20:05:15.798Z,8.13
2023-03-26T20:07:44.811Z,8.50
2023-03-26T20:10:14.783Z,7.80
2023-03-26T20:12:43.216Z,7.87
2023-03-26T20:15:19.079Z,7.07
2023-03-26T20:17:50.172Z,6.67
2023-03-26T20:20:19.443Z,6.83
2023-03-26T20:22:48.202Z,6.93
2023-03-26T20:25:20.476Z,6.07
2023-03-26T20:27:48.938Z,6.20
2023-03-26T20:30:27.534Z,6.13
2023-03-26T20:33:11.983Z,6.27
2023-03-26T20:35:41.695Z,6.43
2023-03-26T20:38:10.469Z,6.80
2023-03-26T20:40:40.967Z,6.63
2023-03-26T20:43:12.884Z,5.60
2023-03-26T20:45:41.621Z,5.80
2023-03-26T20:48:11.099Z,4.20
2023-03-26T20:50:50.278Z,5.03
2023-03-26T20:53:20.370Z,4.97
2023-03-26T20:55:51.617Z,4.70
2023-03-26T20:58:31.068Z,4.47
2023-03-26T21:01:02.101Z,4.57
2023-03-26T21:03:30.791Z,5.00
2023-03-26T21:06:01.315Z,4.87
2023-03-26T21:08:35.393Z,5.37
2023-03-26T21:11:06.499Z,4.87
2023-03-26T21:13:37.864Z,5.57
2023-03-26T21:16:08.138Z,4.80
2023-03-26T21:18:36.920Z,4.27
2023-03-26T21:21:20.197Z,4.50
2023-03-26T21:23:57.861Z,4.30
2023-03-26T21:26:31.550Z,4.80
2023-03-26T21:29:00.932Z,3.83
2023-03-26T21:31:30.989Z,4.20
2023-03-26T21:33:59.793Z,4.50
2023-03-26T21:36:28.499Z,4.27
2023-03-26T21:38:57.231Z,4.40
2023-03-26T21:41:35.885Z,4.33
2023-03-26T21:44:04.475Z,4.67
2023-03-26T21:46:33.196Z,4.90
2023-03-26T21:49:01.816Z,5.70
2023-03-26T21:51:30.447Z,5.90
2023-03-26T21:53:59.087Z,5.90
2023-03-26T21:56:36.160Z,5.43
2023-03-26T21:59:06.964Z,5.77
2023-03-26T22:01:38.638Z,5.03
2023-03-26T22:04:09.841Z,5.23
2023-03-26T22:06:42.925Z,4.77
2023-03-26T22:09:12.912Z,4.60
2023-03-26T22:11:43.552Z,4.40
2023-03-26T22:14:13.306Z,3.60
2023-03-26T22:16:42.063Z,2.73
2023-03-26T22:19:12.527Z,2.50
2023-03-26T22:21:41.156Z,2.33
2023-03-26T22:24:09.915Z,2.43
2023-03-26T22:26:38.687Z,2.07
2023-03-26T22:29:08.604Z,2.00
2023-03-26T22:31:39.830Z,1.90
2023-03-26T22:34:08.303Z,1.80
2023-03-26T22:36:39.789Z,1.80
2023-03-26T22:39:09.031Z,1.57
2023-03-26T22:41:38.858Z,1.50
2023-03-26T22:44:19.971Z,1.80
2023-03-26T22:46:51.467Z,1.50
2023-03-26T22:49:20.204Z,1.70
2023-03-26T22:51:50.171Z,1.30
2023-03-26T22:54:18.627Z,1.40
2023-03-26T22:56:47.065Z,1.77
2023-03-26T22:59:16.846Z,1.70
2023-03-26T23:01:45.948Z,1.40
2023-03-26T23:04:31.533Z,1.50
2023-03-26T23:07:00.825Z,1.30
2023-03-26T23:09:29.520Z,1.70
2023-03-26T23:11:58.071Z,1.40
2023-03-26T23:14:28.687Z,1.50
2023-03-26T23:16:57.210Z,1.50
2023-03-26T23:19:25.784Z,1.60
2023-03-26T23:21:54.255Z,1.70
2023-03-26T23:24:22.623Z,1.60
2023-03-26T23:26:51.453Z,1.60
2023-03-26T23:29:19.954Z,1.60
2023-03-26T23:31:49.785Z,1.40
2023-03-26T23:34:18.620Z,2.53
2023-03-26T23:36:47.076Z,1.50
2023-03-26T23:39:15.946Z,1.57
2023-03-26T23:41:44.503Z,1.50
2023-03-26T23:44:14.609Z,1.50
2023-03-26T23:46:44.217Z,1.30
2023-03-26T23:49:14.907Z,1.20
2023-03-26T23:51:43.329Z,1.20
2023-03-26T23:54:11.720Z,1.23
2023-03-26T23:56:40.502Z,1.30
2023-03-26T23:59:08.952Z,1.20
